Time;durP1;ratioP1;P1;durP2;ratioP2;P2;SDS_P1;SDS_P2;PMS_P1;PMS_P2;Temp;Humidity;BMP_temperature;BMP_pressure;BME280_temperature;BME280_humidity;BME280_pressure;Samples;Min_cycle;Max_cycle;Signal;HPM_P1;HPM_P2
2021/07/21 04:59:27;;;;;;;14.27;6.25;;;;;;;13.59;73.77;100531.91;4985418;28;105980;-78
2021/07/21 05:01:53;;;;;;;14.40;6.35;;;;;;;13.70;74.08;100539.50;4989848;28;107045;-70
2021/07/21 05:04:19;;;;;;;12.45;7.07;;;;;;;13.83;74.44;100541.53;4954238;27;106230;-78
2021/07/21 05:06:45;;;;;;;9.95;6.22;;;;;;;13.97;74.60;100534.53;4964328;28;105949;-75
2021/07/21 05:09:11;;;;;;;12.13;7.07;;;;;;;14.13;74.44;100531.66;4965598;28;105866;-75
2021/07/21 05:11:37;;;;;;;15.25;6.28;;;;;;;14.29;74.27;100545.91;4966085;28;106363;-68
2021/07/21 05:14:03;;;;;;;9.32;6.75;;;;;;;14.45;74.16;100545.69;4965811;28;106271;-71
2021/07/21 05:16:29;;;;;;;14.50;7.07;;;;;;;14.63;74.25;100552.53;4956870;28;106268;-74
2021/07/21 05:18:55;;;;;;;12.68;6.90;;;;;;;14.79;74.03;100554.16;4945435;28;106780;-67
2021/07/21 05:21:20;;;;;;;8.85;6.10;;;;;;;14.96;74.03;100555.59;4946409;28;106016;-69
2021/07/21 05:23:45;;;;;;;9.93;6.38;;;;;;;15.12;73.63;100551.84;4960592;28;106423;-70
2021/07/21 05:26:12;;;;;;;15.05;6.78;;;;;;;15.28;73.28;100549.91;4945431;28;105952;-68
2021/07/21 05:28:39;;;;;;;9.77;5.78;;;;;;;15.40;72.81;100545.69;4945351;28;105893;-72
2021/07/21 05:31:04;;;;;;;14.10;6.88;;;;;;;15.52;72.48;100546.81;4946234;28;105996;-69
2021/07/21 05:33:31;;;;;;;11.15;6.97;;;;;;;15.64;72.36;100554.34;4945641;28;106178;-69
2021/07/21 05:35:57;;;;;;;9.77;6.32;;;;;;;15.77;72.09;100551.75;4945498;28;106228;-71
2021/07/21 05:38:22;;;;;;;12.82;6.88;;;;;;;15.92;72.18;100542.81;4945366;28;106012;-74
2021/07/21 05:40:48;;;;;;;10.23;6.40;;;;;;;16.14;72.40;100546.22;4946563;28;106001;-70
2021/07/21 05:43:13;;;;;;;10.65;6.53;;;;;;;16.31;71.72;100550.25;4945148;28;106423;-71
2021/07/21 05:45:38;;;;;;;9.82;6.18;;;;;;;16.45;71.38;100545.78;4943840;28;106631;-72
2021/07/21 05:48:04;;;;;;;13.18;6.60;;;;;;;16.60;70.73;100552.88;4942549;28;115884;-71
2021/07/21 05:50:30;;;;;;;9.90;5.93;;;;;;;16.73;70.66;100560.97;4943703;28;105972;-72
2021/07/21 05:52:56;;;;;;;12.48;6.85;;;;;;;16.90;70.60;100565.00;4943192;28;106563;-72
2021/07/21 05:55:22;;;;;;;8.68;6.75;;;;;;;17.05;70.29;100567.50;4942465;28;106547;-73
2021/07/21 05:57:47;;;;;;;13.15;6.50;;;;;;;17.24;70.14;100568.59;4942183;28;106298;-73
2021/07/21 06:00:13;;;;;;;9.48;6.20;;;;;;;17.36;69.15;100566.13;4943052;28;106424;-70
2021/07/21 06:02:39;;;;;;;11.18;6.20;;;;;;;17.42;68.73;100567.16;4944653;28;107237;-67
2021/07/21 06:05:06;;;;;;;11.85;6.28;;;;;;;17.50;68.59;100564.25;4944406;28;106718;-65
2021/07/21 06:07:31;;;;;;;17.15;5.88;;;;;;;17.65;68.59;100571.31;4945204;28;106138;-66
2021/07/21 06:09:57;;;;;;;10.50;5.78;;;;;;;17.79;68.37;100572.13;4937447;28;106077;-65
2021/07/21 06:12:22;;;;;;;10.32;5.60;;;;;;;17.93;68.05;100571.94;4932508;28;106051;-65
2021/07/21 06:14:47;;;;;;;8.77;5.93;;;;;;;18.03;67.26;100567.97;4931801;28;106122;-65
2021/07/21 06:17:14;;;;;;;10.40;5.70;;;;;;;18.10;67.18;100560.72;4931390;28;106032;-65
2021/07/21 06:19:39;;;;;;;6.85;5.60;;;;;;;18.22;66.74;100561.72;4929926;28;106061;-70
2021/07/21 06:22:06;;;;;;;7.90;5.32;;;;;;;18.32;66.26;100571.25;4931434;28;106186;-72
2021/07/21 06:24:32;;;;;;;10.38;6.40;;;;;;;18.37;65.74;100574.09;4931678;28;105872;-70
2021/07/21 06:26:58;;;;;;;9.85;5.50;;;;;;;18.42;65.85;100579.69;4930709;28;106064;-71
2021/07/21 06:29:24;;;;;;;13.60;6.40;;;;;;;18.57;65.97;100574.84;4932527;28;106493;-72
2021/07/21 06:31:49;;;;;;;10.77;5.97;;;;;;;18.72;65.57;100579.16;4931558;28;106252;-75
2021/07/21 06:34:15;;;;;;;9.10;5.32;;;;;;;18.91;65.49;100583.66;4931479;28;106011;-72
2021/07/21 06:36:40;;;;;;;10.73;5.65;;;;;;;19.07;65.08;100578.81;4931178;28;105882;-58
2021/07/21 06:39:05;;;;;;;12.52;5.57;;;;;;;19.19;64.29;100578.94;4929730;28;106112;-59
2021/07/21 06:41:31;;;;;;;16.15;6.70;;;;;;;19.25;64.08;100578.91;4931521;28;105993;-69
2021/07/21 06:44:00;;;;;;;13.35;5.63;;;;;;;19.40;64.20;100585.88;4931438;28;105993;-70
2021/07/21 06:46:25;;;;;;;15.85;6.32;;;;;;;19.57;64.07;100581.59;4929903;28;106120;-70
2021/07/21 06:48:52;;;;;;;9.57;5.85;;;;;;;19.80;63.71;100574.75;4931732;28;105981;-70
2021/07/21 06:51:18;;;;;;;14.05;5.47;;;;;;;19.97;63.46;100580.44;4931428;28;106385;-71
2021/07/21 06:53:43;;;;;;;8.70;5.75;;;;;;;20.19;63.05;100588.94;4931559;28;106343;-72
2021/07/21 06:56:09;;;;;;;11.35;5.40;;;;;;;20.41;62.65;100580.38;4931211;28;106653;-72
2021/07/21 06:58:34;;;;;;;8.90;5.82;;;;;;;20.65;62.44;100594.84;4931347;28;106020;-69
2021/07/21 07:01:00;;;;;;;8.68;5.50;;;;;;;20.81;61.57;100593.44;4930948;28;105968;-69
2021/07/21 07:03:25;;;;;;;10.73;4.93;;;;;;;20.95;60.78;100603.06;4930730;28;106229;-69
2021/07/21 07:05:50;;;;;;;8.88;4.97;;;;;;;21.09;60.83;100597.44;4930684;28;105881;-72
2021/07/21 07:08:16;;;;;;;37.22;11.05;;;;;;;21.29;60.47;100597.97;4931156;28;106018;-72
2021/07/21 07:10:41;;;;;;;22.15;8.05;;;;;;;21.45;59.76;100598.38;4929493;28;106210;-72
2021/07/21 07:13:06;;;;;;;11.82;6.30;;;;;;;21.61;59.34;100603.16;4930643;28;107513;-70
2021/07/21 07:15:32;;;;;;;12.07;5.40;;;;;;;21.79;58.93;100604.94;4930879;28;106050;-71
2021/07/21 07:17:58;;;;;;;13.45;4.97;;;;;;;22.08;58.60;100605.03;4930993;28;106543;-73
2021/07/21 07:20:24;;;;;;;7.95;4.57;;;;;;;22.33;57.89;100608.56;4930410;28;106180;-72
2021/07/21 07:22:49;;;;;;;8.75;5.03;;;;;;;22.53;57.20;100606.31;4930150;28;106064;-71
2021/07/21 07:25:15;;;;;;;13.02;5.50;;;;;;;22.67;56.73;100603.34;4930122;28;106488;-74
2021/07/21 07:27:40;;;;;;;9.63;4.30;;;;;;;22.87;56.39;100606.47;4931834;28;106030;-71
2021/07/21 07:30:06;;;;;;;9.27;4.53;;;;;;;23.07;55.66;100610.63;4930792;28;106135;-71
2021/07/21 07:32:32;;;;;;;9.30;4.72;;;;;;;23.25;54.94;100609.59;4930396;28;108472;-72
2021/07/21 07:34:57;;;;;;;12.20;4.90;;;;;;;23.39;54.61;100604.69;4928345;28;107499;-71
2021/07/21 07:37:23;;;;;;;10.23;3.83;;;;;;;23.58;53.80;100614.28;4931023;28;106329;-76
2021/07/21 07:39:48;;;;;;;8.20;4.57;;;;;;;23.79;53.42;100603.72;4929880;28;106352;-72
2021/07/21 07:42:14;;;;;;;17.38;6.65;;;;;;;23.91;52.59;100604.47;4929495;28;106038;-76
2021/07/21 07:44:39;;;;;;;8.40;4.28;;;;;;;23.98;52.15;100609.75;4929903;28;106243;-73
2021/07/21 07:47:05;;;;;;;8.10;4.22;;;;;;;24.19;51.88;100610.84;4931054;28;105873;-72
2021/07/21 07:49:31;;;;;;;9.82;4.30;;;;;;;24.37;50.88;100611.63;4930485;28;106188;-72
2021/07/21 07:51:56;;;;;;;10.73;4.13;;;;;;;24.47;50.54;100607.16;4930097;28;106225;-72
2021/07/21 07:54:22;;;;;;;8.88;4.30;;;;;;;24.46;49.20;100610.13;4930351;28;106003;-73
2021/07/21 07:56:48;;;;;;;7.03;3.97;;;;;;;24.40;49.52;100611.13;4930928;28;106041;-70
2021/07/21 07:59:13;;;;;;;6.90;4.07;;;;;;;24.42;49.43;100609.81;4930285;28;106090;-70
2021/07/21 08:01:39;;;;;;;9.32;4.68;;;;;;;24.49;48.85;100599.56;4930377;28;106143;-70
2021/07/21 08:04:04;;;;;;;6.63;3.65;;;;;;;24.45;48.57;100603.03;4930320;28;105866;-70
2021/07/21 08:06:29;;;;;;;8.38;3.95;;;;;;;24.62;48.54;100603.81;4931313;28;105787;-71
2021/07/21 08:08:55;;;;;;;7.75;3.45;;;;;;;24.86;48.38;100603.53;4930030;28;106154;-70
2021/07/21 08:11:20;;;;;;;6.75;3.70;;;;;;;25.13;47.99;100600.03;4929537;28;105930;-71
2021/07/21 08:13:45;;;;;;;4.63;3.30;;;;;;;25.40;47.24;100607.41;4929405;28;106020;-71
2021/07/21 08:16:12;;;;;;;10.30;4.00;;;;;;;25.71;46.34;100607.63;4931248;28;105905;-74
2021/07/21 08:18:38;;;;;;;8.25;3.70;;;;;;;25.89;45.64;100609.97;4930389;28;106177;-74
2021/07/21 08:21:03;;;;;;;10.30;3.63;;;;;;;25.77;44.71;100606.59;4929298;28;105804;-73
2021/07/21 08:23:28;;;;;;;19.75;5.78;;;;;;;25.94;44.28;100615.44;4929433;28;106034;-73
2021/07/21 08:25:54;;;;;;;7.00;3.42;;;;;;;25.60;42.82;100613.03;4930118;28;106214;-72
2021/07/21 08:28:19;;;;;;;6.18;3.75;;;;;;;25.56;43.76;100616.50;4914161;28;106204;-72
2021/07/21 08:30:45;;;;;;;10.85;3.72;;;;;;;25.80;43.87;100608.78;4910585;28;106544;-76
2021/07/21 08:33:11;;;;;;;7.95;3.50;;;;;;;26.30;43.74;100625.78;4910181;28;105876;-70
2021/07/21 08:35:37;;;;;;;8.15;3.47;;;;;;;26.78;42.90;100609.38;4929754;28;105985;-71
2021/07/21 08:38:06;;;;;;;9.82;3.40;;;;;;;27.08;41.53;100618.72;4928933;28;105986;-70
2021/07/21 08:40:32;;;;;;;8.40;3.25;;;;;;;27.07;41.07;100622.56;4928778;28;106767;-73
2021/07/21 08:42:58;;;;;;;8.65;3.65;;;;;;;27.05;40.72;100620.09;4929173;28;105846;-75
2021/07/21 08:45:24;;;;;;;7.32;3.95;;;;;;;27.16;40.28;100621.75;4930490;28;105802;-74
2021/07/21 08:47:50;;;;;;;7.50;3.40;;;;;;;27.16;40.07;100616.28;4929647;28;106192;-75
2021/07/21 08:50:16;;;;;;;8.90;3.40;;;;;;;27.35;40.17;100619.31;4929596;28;106006;-74
2021/07/21 08:52:42;;;;;;;8.95;3.20;;;;;;;27.76;39.63;100620.44;4929052;28;106026;-71
2021/07/21 08:55:10;;;;;;;5.65;3.10;;;;;;;28.32;38.96;100620.34;4922114;28;106145;-71
2021/07/21 08:57:37;;;;;;;4.38;2.88;;;;;;;28.78;37.79;100616.63;4925859;28;106044;-72
2021/07/21 09:00:14;;;;;;;5.60;3.30;;;;;;;28.67;36.58;100621.31;4929385;28;106026;-71
2021/07/21 09:02:41;;;;;;;5.03;2.90;;;;;;;28.58;37.06;100616.69;4922157;28;106808;-74
2021/07/21 09:05:08;;;;;;;11.07;3.50;;;;;;;28.47;36.61;100622.22;4925652;28;106016;-73
2021/07/21 09:07:35;;;;;;;6.97;3.30;;;;;;;28.19;37.04;100626.41;4928360;28;106146;-73
2021/07/21 09:10:01;;;;;;;10.00;4.90;;;;;;;27.90;36.99;100624.25;4909278;28;106538;-73
2021/07/21 09:12:26;;;;;;;13.23;3.38;;;;;;;27.80;37.24;100630.56;4913967;28;105934;-73
2021/07/21 09:14:52;;;;;;;6.97;3.25;;;;;;;27.77;37.60;100625.63;4920958;28;106102;-71
2021/07/21 09:17:21;;;;;;;6.43;3.20;;;;;;;27.66;37.53;100630.28;4928927;28;105823;-72
2021/07/21 09:19:49;;;;;;;9.40;4.23;;;;;;;27.43;37.76;100631.63;4918099;28;106058;-74
2021/07/21 09:22:21;;;;;;;11.07;3.60;;;;;;;27.21;38.11;100637.34;4928776;28;106480;-73
2021/07/21 09:25:08;;;;;;;10.10;3.65;;;;;;;26.94;38.32;100634.81;4929754;28;106059;-76
2021/07/21 09:27:34;;;;;;;5.10;3.60;;;;;;;26.75;38.94;100629.84;4924663;28;106091;-76
2021/07/21 09:29:59;;;;;;;9.35;3.85;;;;;;;26.66;38.92;100634.97;4928763;28;109595;-75
2021/07/21 09:32:24;;;;;;;11.60;4.03;;;;;;;26.61;39.10;100637.66;4928707;28;105860;-75
2021/07/21 09:34:53;;;;;;;7.38;3.58;;;;;;;26.47;39.80;100637.34;4929257;28;106179;-74
2021/07/21 09:37:20;;;;;;;8.85;4.10;;;;;;;26.45;40.07;100639.53;4928668;28;106135;-77
2021/07/21 09:39:50;;;;;;;7.63;4.00;;;;;;;26.48;39.95;100638.19;4928427;28;106410;-75
2021/07/21 09:42:16;;;;;;;9.18;4.18;;;;;;;26.55;40.05;100637.94;4928255;28;108101;-75
2021/07/21 09:44:45;;;;;;;11.25;4.70;;;;;;;26.57;40.03;100639.28;4930467;28;105796;-74
2021/07/21 09:47:22;;;;;;;7.72;3.85;;;;;;;26.60;39.78;100627.84;4931947;28;106199;-71
2021/07/21 09:49:49;;;;;;;11.18;4.30;;;;;;;26.60;39.68;100632.47;4931729;28;106060;-72
2021/07/21 09:52:14;;;;;;;11.90;3.92;;;;;;;26.66;39.76;100629.50;4931410;28;105801;-76
2021/07/21 09:54:40;;;;;;;9.35;4.13;;;;;;;26.79;39.55;100628.22;4932324;28;105902;-75
2021/07/21 09:57:12;;;;;;;8.45;3.83;;;;;;;26.92;39.40;100628.81;4931583;28;106154;-76
2021/07/21 09:59:37;;;;;;;14.70;4.43;;;;;;;27.19;38.83;100620.38;4931571;28;106229;-73
2021/07/21 10:02:14;;;;;;;8.02;4.15;;;;;;;27.66;38.22;100618.53;4931089;28;106215;-73
2021/07/21 10:04:40;;;;;;;10.65;4.85;;;;;;;28.16;37.76;100629.72;4932342;28;106211;-77
2021/07/21 10:08:07;;;;;;;8.77;3.90;;;;;;;28.46;37.28;100633.44;4931611;28;106227;-70
2021/07/21 10:10:12;;;;;;;8.23;3.95;;;;;;;28.87;36.49;100638.78;4933951;28;106574;-70
2021/07/21 10:12:38;;;;;;;7.80;4.10;;;;;;;29.30;35.68;100630.03;4930804;28;105845;-70
2021/07/21 10:15:05;;;;;;;7.35;3.90;;;;;;;29.58;35.22;100622.97;4932386;28;105935;-70
2021/07/21 10:17:30;;;;;;;10.43;4.15;;;;;;;30.02;34.75;100622.03;4931319;28;106236;-70
2021/07/21 10:19:56;;;;;;;10.30;4.05;;;;;;;30.30;33.88;100622.25;4931421;28;106413;-71
2021/07/21 10:22:23;;;;;;;7.72;3.80;;;;;;;30.55;33.23;100623.09;4931188;28;106702;-71
2021/07/21 10:24:48;;;;;;;5.65;3.58;;;;;;;30.87;32.96;100618.84;4932204;28;105883;-70
2021/07/21 10:27:15;;;;;;;9.05;3.63;;;;;;;31.10;32.45;100617.16;4931463;28;106233;-75
2021/07/21 10:29:42;;;;;;;7.07;3.72;;;;;;;31.37;31.71;100621.13;4929819;28;106182;-75
2021/07/21 10:32:10;;;;;;;4.93;3.20;;;;;;;31.14;30.98;100612.69;4930980;28;106208;-74
2021/07/21 10:34:36;;;;;;;6.85;3.60;;;;;;;30.96;30.83;100617.06;4931590;28;106014;-75
2021/07/21 10:37:02;;;;;;;7.10;3.83;;;;;;;30.76;30.94;100620.09;4930342;28;107346;-77
2021/07/21 10:39:31;;;;;;;7.60;3.65;;;;;;;30.48;30.90;100622.63;4930481;28;107149;-73
2021/07/21 10:42:01;;;;;;;;;;;;;;;30.16;31.05;100621.34;4920687;28;106077;-74
2021/07/21 10:44:26;;;;;;;7.18;4.32;;;;;;;29.54;31.95;100608.19;4919605;28;106612;-74
2021/07/21 10:46:53;;;;;;;13.45;4.32;;;;;;;29.10;32.60;100611.75;4926837;28;106617;-73
2021/07/21 10:49:33;;;;;;;6.22;3.78;;;;;;;28.49;33.17;100614.53;4929374;28;106139;-72
2021/07/21 11:00:49;;;;;;;6.43;4.03;;;;;;;27.57;34.55;100620.16;4929266;28;106425;-71
2021/07/21 11:03:28;;;;;;;5.88;3.92;;;;;;;27.19;35.64;100614.91;4926862;28;106401;-69
2021/07/21 11:05:58;;;;;;;8.63;3.88;;;;;;;27.18;36.07;100613.28;4929103;28;107256;-74
2021/07/21 11:08:24;;;;;;;;;;;;;;;27.47;36.14;100616.31;4929919;28;106247;-71
2021/07/21 11:10:51;;;;;;;7.00;3.90;;;;;;;27.72;35.47;100611.13;4929425;28;106102;-65
2021/07/21 11:13:29;;;;;;;7.38;3.70;;;;;;;28.04;35.45;100613.56;4927070;28;106394;-65
2021/07/21 11:15:56;;;;;;;11.65;4.40;;;;;;;28.33;34.56;100611.00;4929654;28;106250;-66
2021/07/21 11:18:21;;;;;;;4.70;2.95;;;;;;;28.75;34.28;100605.41;4930604;28;107066;-65
2021/07/21 11:21:03;;;;;;;5.95;3.63;;;;;;;29.09;33.57;100613.69;4930320;28;106106;-67
2021/07/21 11:23:53;;;;;;;5.72;3.00;;;;;;;29.37;32.56;100614.06;4930448;28;105809;-66
2021/07/21 11:26:34;;;;;;;5.68;3.35;;;;;;;29.95;32.05;100606.97;4930920;28;106144;-67
2021/07/21 11:29:24;;;;;;;5.03;3.33;;;;;;;30.52;31.36;100612.69;4928768;28;106218;-69
2021/07/21 11:31:50;;;;;;;9.60;3.58;;;;;;;31.05;30.45;100598.78;4929962;28;105738;-67
2021/07/21 11:34:30;;;;;;;5.32;3.20;;;;;;;31.49;30.00;100604.16;4927305;28;106049;-66
2021/07/21 11:37:08;;;;;;;7.22;3.17;;;;;;;31.60;29.65;100608.38;4929458;28;106320;-68
2021/07/21 11:39:38;;;;;;;7.05;2.95;;;;;;;31.33;29.35;100618.16;4928977;28;106024;-67
2021/07/21 11:42:08;;;;;;;7.53;3.25;;;;;;;31.11;29.66;100612.47;4928526;28;106046;-69
2021/07/21 11:44:37;;;;;;;4.85;2.83;;;;;;;30.77;29.52;100625.28;4928473;28;106597;-66
2021/07/21 11:47:05;;;;;;;6.93;2.97;;;;;;;30.58;29.80;100619.78;4928710;28;106043;-66
2021/07/21 11:49:33;;;;;;;5.45;3.15;;;;;;;30.48;30.08;100622.63;4928505;28;106450;-69
2021/07/21 11:52:02;;;;;;;5.63;3.05;;;;;;;30.65;29.95;100622.97;4928213;28;106102;-68
2021/07/21 11:54:33;;;;;;;4.50;2.80;;;;;;;30.69;29.57;100626.75;4928039;28;106122;-72
2021/07/21 11:57:00;;;;;;;5.00;3.00;;;;;;;30.67;29.41;100631.75;4928000;28;106505;-74
2021/07/21 11:59:36;;;;;;;4.63;2.78;;;;;;;30.77;29.26;100629.97;4927183;28;106512;-75
2021/07/21 12:02:05;;;;;;;6.45;3.42;;;;;;;30.79;28.95;100623.06;4930303;28;105839;-66
2021/07/21 12:04:30;;;;;;;5.35;2.95;;;;;;;30.96;29.01;100625.31;4929400;28;106100;-66
2021/07/21 12:06:56;;;;;;;6.95;3.60;;;;;;;31.03;28.19;100617.53;4930007;28;105867;-66
2021/07/21 12:09:29;;;;;;;7.85;3.50;;;;;;;31.05;28.08;100603.47;4929743;28;106290;-66
2021/07/21 12:11:56;;;;;;;5.25;3.10;;;;;;;31.33;27.87;100607.16;4929229;28;106663;-63
2021/07/21 12:14:23;;;;;;;7.22;3.10;;;;;;;31.81;27.38;100613.53;4929543;28;106323;-67
2021/07/21 12:16:50;;;;;;;5.72;2.55;;;;;;;32.23;26.75;100608.91;4930316;28;106403;-67
2021/07/21 12:19:15;;;;;;;7.53;3.00;;;;;;;32.39;26.24;100621.25;4928570;28;105944;-67
2021/07/21 12:21:41;;;;;;;4.90;3.08;;;;;;;32.54;25.80;100611.03;4929015;28;106272;-67
2021/07/21 12:24:07;;;;;;;6.40;2.72;;;;;;;32.55;25.62;100594.16;4928793;28;107146;-66
2021/07/21 12:26:40;;;;;;;6.88;3.25;;;;;;;32.46;25.94;100612.56;4926966;28;106074;-64
2021/07/21 12:29:06;;;;;;;7.00;3.50;;;;;;;32.34;25.55;100604.81;4929020;28;106270;-65
2021/07/21 12:31:31;;;;;;;5.90;3.05;;;;;;;32.42;25.50;100607.97;4928248;28;106729;-68
2021/07/21 12:34:19;;;;;;;6.80;3.38;;;;;;;32.51;25.85;100603.38;4927987;28;107514;-69
2021/07/21 12:36:47;;;;;;;4.38;3.05;;;;;;;32.55;25.85;100593.38;4927095;28;106452;-68
2021/07/21 12:39:14;;;;;;;5.38;2.63;;;;;;;32.48;25.57;100593.78;4925367;28;107683;-69
2021/07/21 12:41:41;;;;;;;6.47;3.10;;;;;;;32.40;24.99;100597.25;4928751;28;106030;-67
2021/07/21 12:44:17;;;;;;;4.55;2.72;;;;;;;32.14;24.37;100600.50;4929060;28;106090;-68
2021/07/21 12:46:46;;;;;;;4.90;2.75;;;;;;;32.01;24.67;100601.31;4929840;28;105847;-71
2021/07/21 12:49:12;;;;;;;4.75;2.42;;;;;;;32.16;24.78;100591.97;4929242;28;106355;-69
2021/07/21 12:51:38;;;;;;;5.65;2.85;;;;;;;32.09;24.53;100597.84;4929402;28;106199;-72
2021/07/21 12:54:07;;;;;;;4.82;2.97;;;;;;;31.83;24.78;100595.56;4928893;28;106319;-71
2021/07/21 12:56:32;;;;;;;5.97;2.58;;;;;;;31.64;25.22;100598.41;4929738;28;105808;-73
2021/07/21 12:59:12;;;;;;;4.63;2.92;;;;;;;31.24;25.36;100597.94;4928716;28;106197;-65
2021/07/21 13:01:37;;;;;;;4.05;2.58;;;;;;;31.21;25.63;100604.88;4928002;28;106009;-64
2021/07/21 13:04:03;;;;;;;6.15;3.30;;;;;;;31.09;25.52;100599.00;4929307;28;106499;-64
2021/07/21 13:06:30;;;;;;;4.97;2.88;;;;;;;30.79;25.83;100606.56;4929813;28;106050;-65
2021/07/21 13:08:55;;;;;;;7.50;3.65;;;;;;;30.64;26.34;100604.81;4929409;28;106117;-66
2021/07/21 13:11:25;;;;;;;8.23;3.20;;;;;;;30.64;26.51;100602.06;4929190;28;106520;-66
2021/07/21 13:13:50;;;;;;;5.53;3.67;;;;;;;30.69;26.94;100602.03;4929209;28;106009;-66
2021/07/21 13:16:24;;;;;;;7.87;3.20;;;;;;;30.93;26.67;100606.63;4929756;28;106007;-65
2021/07/21 13:18:57;;;;;;;6.15;2.90;;;;;;;30.92;26.17;100610.50;4927967;28;106245;-64
2021/07/21 13:21:37;;;;;;;9.48;3.22;;;;;;;30.91;26.09;100613.53;4932467;28;106623;-63
2021/07/21 13:24:05;;;;;;;5.25;2.70;;;;;;;31.12;25.72;100603.09;4931911;28;106044;-63
2021/07/21 13:26:31;;;;;;;5.78;3.05;;;;;;;31.24;25.70;100597.94;4932770;28;105839;-64
2021/07/21 13:28:59;;;;;;;5.30;3.40;;;;;;;31.28;25.72;100606.44;4932053;28;106157;-65
2021/07/21 13:31:33;;;;;;;7.03;2.95;;;;;;;31.34;25.61;100600.53;4932095;28;106208;-67
2021/07/21 13:33:59;;;;;;;6.00;3.08;;;;;;;31.29;25.61;100595.13;4931994;28;106493;-65
2021/07/21 13:36:28;;;;;;;5.18;3.03;;;;;;;31.21;25.58;100601.31;4932799;28;106106;-65
2021/07/21 13:38:59;;;;;;;8.35;3.58;;;;;;;31.22;25.89;100594.66;4931533;28;106243;-65
2021/07/21 13:41:29;;;;;;;5.40;3.10;;;;;;;31.34;25.73;100595.03;4931485;28;105908;-66
2021/07/21 13:43:56;;;;;;;4.65;2.67;;;;;;;31.19;25.31;100598.03;4930759;28;107064;-67
2021/07/21 13:46:29;;;;;;;11.35;3.08;;;;;;;30.87;25.49;100599.56;4931886;28;105924;-65
2021/07/21 13:48:56;;;;;;;6.18;3.10;;;;;;;30.64;25.70;100598.53;4930800;28;106255;-65
2021/07/21 13:51:34;;;;;;;5.57;2.80;;;;;;;30.35;25.76;100591.97;4930430;28;107282;-65
2021/07/21 13:54:13;;;;;;;6.20;2.85;;;;;;;30.12;26.05;100592.81;4930449;28;106048;-63
2021/07/21 13:56:39;;;;;;;5.07;2.80;;;;;;;29.87;25.58;100597.47;4930793;28;106538;-65
2021/07/21 13:59:05;;;;;;;8.93;3.42;;;;;;;29.56;26.09;100603.22;4930431;28;106114;-65
2021/07/21 14:01:31;;;;;;;6.20;3.15;;;;;;;29.59;26.16;100602.63;4920411;28;105949;-65
2021/07/21 14:03:59;;;;;;;5.75;2.90;;;;;;;29.73;26.42;100593.72;4912548;28;105839;-66
2021/07/21 14:06:28;;;;;;;8.23;3.15;;;;;;;29.70;26.48;100606.94;4928106;28;106042;-64
2021/07/21 14:08:57;;;;;;;6.03;3.63;;;;;;;29.60;26.41;100604.28;4931873;28;106233;-65
2021/07/21 14:11:24;;;;;;;5.75;2.85;;;;;;;29.50;26.90;100601.63;4931728;28;106022;-64
2021/07/21 14:13:49;;;;;;;5.60;2.85;;;;;;;29.47;26.61;100596.69;4931503;28;105838;-64
2021/07/21 14:16:15;;;;;;;7.40;3.30;;;;;;;29.46;26.70;100597.81;4931751;28;106125;-64
2021/07/21 14:18:40;;;;;;;5.43;3.28;;;;;;;29.48;26.73;100598.34;4931636;28;106228;-65
2021/07/21 14:21:06;;;;;;;4.75;2.80;;;;;;;29.50;27.12;100594.22;4931181;28;106232;-65
2021/07/21 14:23:33;;;;;;;6.72;3.30;;;;;;;29.67;26.75;100596.50;4931004;28;105990;-67
2021/07/21 14:25:58;;;;;;;6.82;3.35;;;;;;;29.74;26.42;100593.44;4932506;28;105928;-66
2021/07/21 14:28:23;;;;;;;7.68;3.50;;;;;;;29.60;26.48;100593.28;4931586;28;106240;-66
2021/07/21 14:30:49;;;;;;;4.80;3.28;;;;;;;29.54;26.71;100599.94;4929020;28;106665;-67
2021/07/21 14:33:14;;;;;;;7.65;3.08;;;;;;;29.57;26.75;100588.38;4929189;28;106511;-67
2021/07/21 14:35:40;;;;;;;5.22;3.20;;;;;;;29.61;26.93;100599.59;4929766;28;107034;-67
2021/07/21 14:38:05;;;;;;;5.78;3.20;;;;;;;29.58;26.73;100600.19;4929077;28;106289;-68
2021/07/21 14:40:31;;;;;;;5.88;3.03;;;;;;;29.41;26.51;100590.44;4929009;28;106474;-68
2021/07/21 14:42:56;;;;;;;7.57;3.15;;;;;;;29.27;26.77;100595.78;4928707;28;106354;-67
2021/07/21 14:45:22;;;;;;;6.55;3.67;;;;;;;29.12;26.88;100593.91;4931458;28;106509;-68
2021/07/21 14:47:47;;;;;;;8.63;3.25;;;;;;;29.10;27.39;100589.81;4931346;28;105885;-67
2021/07/21 14:50:13;;;;;;;5.80;3.30;;;;;;;29.09;27.10;100589.00;4930746;28;114092;-68
2021/07/21 14:52:38;;;;;;;7.30;3.33;;;;;;;28.91;27.30;100593.25;4931054;28;106303;-67
2021/07/21 14:55:06;;;;;;;5.43;3.60;;;;;;;28.66;28.06;100577.75;4930469;28;106002;-68
2021/07/21 14:57:31;;;;;;;9.02;3.13;;;;;;;28.50;28.32;100587.94;4931402;28;106230;-68
2021/07/21 14:59:56;;;;;;;6.72;2.88;;;;;;;28.37;28.56;100587.44;4931095;28;105938;-67
2021/07/21 15:02:22;;;;;;;5.93;3.42;;;;;;;28.22;28.41;100603.13;4931014;28;106013;-67
2021/07/21 15:04:47;;;;;;;5.85;3.10;;;;;;;27.99;28.87;100591.66;4931723;28;105973;-68
2021/07/21 15:07:13;;;;;;;5.68;3.30;;;;;;;27.74;28.80;100590.59;4931328;28;105902;-67
2021/07/21 15:09:38;;;;;;;5.30;3.22;;;;;;;27.43;29.06;100593.34;4930631;28;106084;-68
2021/07/21 15:12:04;;;;;;;8.02;3.40;;;;;;;27.24;29.36;100595.75;4930874;28;106072;-67
2021/07/21 15:14:29;;;;;;;4.43;3.10;;;;;;;27.08;29.79;100588.63;4931370;28;106020;-68
2021/07/21 15:16:55;;;;;;;5.53;3.53;;;;;;;27.05;30.00;100580.97;4931337;28;106275;-68
2021/07/21 15:19:20;;;;;;;5.95;3.25;;;;;;;26.90;29.95;100596.28;4930795;28;105895;-67
2021/07/21 15:21:45;;;;;;;7.30;3.70;;;;;;;26.89;29.83;100588.31;4930555;28;105902;-68
2021/07/21 15:24:11;;;;;;;5.35;3.35;;;;;;;26.85;30.34;100586.13;4931195;28;105850;-68
2021/07/21 15:26:39;;;;;;;7.63;3.30;;;;;;;26.77;30.42;100591.31;4930484;28;106487;-67
2021/07/21 15:29:05;;;;;;;5.13;3.22;;;;;;;26.73;30.63;100590.22;4930456;28;105820;-68
2021/07/21 15:31:32;;;;;;;8.40;3.22;;;;;;;26.69;30.69;100595.34;4930374;28;106250;-68
2021/07/21 15:33:57;;;;;;;6.45;4.03;;;;;;;26.71;30.88;100590.50;4931060;28;105967;-68
2021/07/21 15:36:23;;;;;;;8.10;3.42;;;;;;;26.62;31.12;100590.13;4930564;28;106245;-68
2021/07/21 15:38:48;;;;;;;7.28;3.60;;;;;;;26.59;31.29;100589.88;4930465;28;106015;-68
2021/07/21 15:41:14;;;;;;;8.75;3.47;;;;;;;26.62;31.29;100587.41;4930466;28;105977;-68
2021/07/21 15:43:39;;;;;;;6.40;3.22;;;;;;;26.63;31.32;100588.25;4930822;28;106062;-67
2021/07/21 15:46:05;;;;;;;8.35;4.13;;;;;;;26.60;31.38;100586.88;4930818;28;106126;-68
2021/07/21 15:48:30;;;;;;;8.65;3.30;;;;;;;26.56;31.54;100591.22;4929381;28;106652;-68
2021/07/21 15:50:56;;;;;;;6.03;3.30;;;;;;;26.55;31.78;100589.56;4929918;28;106202;-69
2021/07/21 15:53:21;;;;;;;9.05;4.07;;;;;;;26.61;31.79;100587.69;4927495;28;105996;-69
2021/07/21 15:55:48;;;;;;;6.40;3.30;;;;;;;26.65;31.83;100583.31;4928579;28;106459;-70
2021/07/21 15:58:14;;;;;;;5.25;3.33;;;;;;;26.74;31.83;100586.41;4927218;28;107181;-70
2021/07/21 16:00:41;;;;;;;4.13;2.70;;;;;;;26.66;31.93;100584.97;4926588;28;106073;-71
2021/07/21 16:03:06;;;;;;;9.60;3.40;;;;;;;26.64;32.13;100577.03;4928596;28;106672;-69
2021/07/21 16:05:32;;;;;;;6.03;3.10;;;;;;;26.60;32.17;100578.66;4927820;28;106608;-72
2021/07/21 16:07:57;;;;;;;8.02;3.70;;;;;;;26.44;32.39;100579.72;4927811;28;106671;-66
2021/07/21 16:10:23;;;;;;;6.43;3.38;;;;;;;26.27;32.99;100578.00;4927748;28;106165;-67
2021/07/21 16:12:52;;;;;;;6.25;3.33;;;;;;;26.10;33.26;100571.91;4928203;28;106587;-70
2021/07/21 16:15:20;;;;;;;7.10;4.20;;;;;;;25.88;33.63;100578.28;4927893;28;106413;-70
2021/07/21 16:17:46;;;;;;;5.72;3.63;;;;;;;25.70;33.85;100578.69;4926995;28;107720;-71
2021/07/21 16:20:12;;;;;;;8.45;3.38;;;;;;;25.53;34.18;100585.13;4927753;28;106270;-69
2021/07/21 16:22:38;;;;;;;8.85;4.13;;;;;;;25.45;34.63;100581.00;4928417;28;106562;-69
2021/07/21 16:25:15;;;;;;;7.20;3.97;;;;;;;25.36;35.08;100582.53;4927760;28;106188;-72